Time;durP1;ratioP1;P1;durP2;ratioP2;P2;SDS_P1;SDS_P2;PMS_P1;PMS_P2;Temp;Humidity;BMP_temperature;BMP_pressure;BME280_temperature;BME280_humidity;BME280_pressure;Samples;Min_cycle;Max_cycle;Signal;HPM_P1;HPM_P2
2021/07/07 11:37:05;;;;;;;9.43;7.60;;;;;;;;;;5106511;27;20389;-61
2021/07/07 11:39:31;;;;;;;11.90;7.50;;;;;;;;;;5107549;28;20600;-77
2021/07/07 11:42:03;;;;;;;11.75;7.70;;;;;;;;;;5107103;28;20152;-61
2021/07/07 11:44:43;;;;;;;11.20;8.00;;;;;;;;;;5107363;28;20031;-68
2021/07/07 11:47:09;;;;;;;10.93;7.32;;;;;;;;;;5107055;28;20483;-74
2021/07/07 11:49:35;;;;;;;10.38;7.25;;;;;;;;;;5107120;28;20019;-65
2021/07/07 11:52:05;;;;;;;8.50;7.32;;;;;;;;;;5108074;28;20031;-75
2021/07/07 11:54:50;;;;;;;10.10;6.97;;;;;;;;;;5107226;28;20031;-73
2021/07/07 11:57:16;;;;;;;10.35;7.25;;;;;;;;;;5107177;28;20501;-68
2021/07/07 11:59:42;;;;;;;10.95;7.43;;;;;;;;;;5106942;28;20043;-60
2021/07/07 12:02:08;;;;;;;8.88;7.65;;;;;;;;;;5107789;28;20086;-70
2021/07/07 12:04:34;;;;;;;11.02;8.30;;;;;;;;;;5107944;28;20031;-77
2021/07/07 12:07:00;;;;;;;11.73;8.95;;;;;;;;;;5107751;28;20554;-59
2021/07/07 12:09:28;;;;;;;14.35;7.90;;;;;;;;;;5108020;28;20023;-68
2021/07/07 12:11:58;;;;;;;10.95;7.80;;;;;;;;;;5107760;28;20554;-65
2021/07/07 12:14:25;;;;;;;11.85;8.63;;;;;;;;;;5107704;28;20526;-78
2021/07/07 12:16:51;;;;;;;10.68;7.80;;;;;;;;;;5107708;28;20042;-62
2021/07/07 12:19:18;;;;;;;10.52;8.02;;;;;;;;;;5108001;28;20024;-67
2021/07/07 12:21:51;;;;;;;9.63;7.20;;;;;;;;;;5107089;28;20696;-72
2021/07/07 12:24:23;;;;;;;10.40;7.18;;;;;;;;;;5107611;28;20020;-82
2021/07/07 12:26:49;;;;;;;;;;;;;;;;;;5105942;28;20218;-73
2021/07/07 12:29:17;;;;;;;13.40;7.70;;;;;;;;;;5108119;28;20006;-70
2021/07/07 12:31:43;;;;;;;13.15;8.13;;;;;;;;;;5107654;28;20028;-72
2021/07/07 12:34:10;;;;;;;11.68;7.50;;;;;;;;;;5107691;28;20296;-75
2021/07/07 12:36:41;;;;;;;11.50;8.77;;;;;;;;;;5107120;28;20048;-81
2021/07/07 12:39:27;;;;;;;15.45;8.73;;;;;;;;;;5107292;28;20458;-80
2021/07/07 12:42:03;;;;;;;17.35;11.77;;;;;;;;;;5106981;28;20073;-75
2021/07/07 12:44:42;;;;;;;14.40;8.98;;;;;;;;;;5106974;28;20141;-77
2021/07/07 12:47:19;;;;;;;11.52;7.72;;;;;;;;;;5100427;28;20032;-82
2021/07/07 12:49:45;;;;;;;12.48;7.90;;;;;;;;;;5093637;28;20091;-78
2021/07/07 12:52:25;;;;;;;10.75;8.43;;;;;;;;;;5093873;28;20066;-73
2021/07/07 12:55:11;;;;;;;12.80;8.88;;;;;;;;;;5091065;28;20027;-66
2021/07/07 12:58:06;;;;;;;18.60;12.93;;;;;;;;;;5091673;28;20405;-75
2021/07/07 13:00:39;;;;;;;19.23;11.95;;;;;;;;;;5092553;28;20686;-66
2021/07/07 13:03:10;;;;;;;18.92;11.00;;;;;;;;;;5093107;28;20016;-70
2021/07/07 13:05:36;;;;;;;16.85;9.15;;;;;;;;;;5090364;28;20136;-74
2021/07/07 13:08:04;;;;;;;11.95;8.52;;;;;;;;;;5093025;28;20021;-76
2021/07/07 13:10:31;;;;;;;10.68;8.38;;;;;;;;;;5092575;28;20034;-76
2021/07/07 13:12:57;;;;;;;11.85;8.50;;;;;;;;;;5090412;28;20020;-69
2021/07/07 13:15:23;;;;;;;12.70;8.43;;;;;;;;;;5092679;28;20052;-66
2021/07/07 13:17:59;;;;;;;11.18;9.15;;;;;;;;;;5092938;28;20085;-80
2021/07/07 13:20:25;;;;;;;14.35;10.75;;;;;;;;;;5093219;28;20494;-79
2021/07/07 13:23:04;;;;;;;19.63;11.32;;;;;;;;;;5092678;28;20028;-79
2021/07/07 13:25:30;;;;;;;16.77;11.52;;;;;;;;;;5092398;28;20379;-67
2021/07/07 13:27:56;;;;;;;12.68;10.32;;;;;;;;;;5092840;28;20032;-78
2021/07/07 13:30:29;;;;;;;16.55;10.07;;;;;;;;;;5092376;28;20020;-79
2021/07/07 13:32:55;;;;;;;19.48;12.60;;;;;;;;;;5090581;28;20498;-73
2021/07/07 13:35:21;;;;;;;18.45;12.38;;;;;;;;;;5091923;28;20117;-65
2021/07/07 13:37:48;;;;;;;18.20;12.00;;;;;;;;;;5091816;28;20031;-65
2021/07/07 13:40:18;;;;;;;16.83;11.60;;;;;;;;;;5091891;28;20119;-78
2021/07/07 13:42:44;;;;;;;14.45;10.93;;;;;;;;;;5092796;28;20024;-72
2021/07/07 13:45:11;;;;;;;18.80;11.85;;;;;;;;;;5092299;28;20032;-70
2021/07/07 13:47:38;;;;;;;21.45;12.40;;;;;;;;;;5092546;28;20089;-70
2021/07/07 13:50:05;;;;;;;19.27;12.60;;;;;;;;;;5092874;28;20578;-71
2021/07/07 13:52:31;;;;;;;17.88;12.27;;;;;;;;;;5092730;28;20039;-74
2021/07/07 13:54:58;;;;;;;16.50;11.80;;;;;;;;;;5092693;28;20028;-75
2021/07/07 13:57:24;;;;;;;18.05;11.98;;;;;;;;;;5092852;28;20059;-66
2021/07/07 13:59:50;;;;;;;16.67;11.27;;;;;;;;;;5091276;28;20032;-68
2021/07/07 14:02:17;;;;;;;17.20;11.60;;;;;;;;;;5092319;28;20114;-71
2021/07/07 14:04:43;;;;;;;12.73;9.63;;;;;;;;;;5095681;27;20077;-71
2021/07/07 14:07:09;;;;;;;10.68;8.77;;;;;;;;;;5133297;27;20035;-69
2021/07/07 14:09:35;;;;;;;12.23;9.13;;;;;;;;;;5133411;27;20023;-71
2021/07/07 14:12:02;;;;;;;12.88;8.63;;;;;;;;;;5132157;27;20027;-66
2021/07/07 14:14:35;;;;;;;12.30;8.82;;;;;;;;;;5131961;27;20136;-67
2021/07/07 14:17:01;;;;;;;11.38;9.25;;;;;;;;;;5113787;27;20498;-66
2021/07/07 14:19:27;;;;;;;11.50;9.10;;;;;;;;;;5133079;27;20470;-73
2021/07/07 14:21:53;;;;;;;13.32;8.90;;;;;;;;;;5132612;27;20023;-70
2021/07/07 14:24:19;;;;;;;10.73;8.52;;;;;;;;;;5131660;27;20057;-76
2021/07/07 14:26:46;;;;;;;14.40;9.82;;;;;;;;;;5130851;27;20035;-66
2021/07/07 14:29:12;;;;;;;13.02;9.13;;;;;;;;;;5130687;27;20011;-72
2021/07/07 14:31:38;;;;;;;11.50;8.70;;;;;;;;;;5130707;27;20030;-66
2021/07/07 14:34:04;;;;;;;13.13;8.82;;;;;;;;;;5132155;27;20462;-71
2021/07/07 14:36:30;;;;;;;14.65;10.13;;;;;;;;;;5111867;27;20047;-67
2021/07/07 14:38:57;;;;;;;12.35;8.50;;;;;;;;;;5131446;27;20030;-68
2021/07/07 14:41:31;;;;;;;18.60;9.88;;;;;;;;;;5131019;27;20050;-65
2021/07/07 14:43:57;;;;;;;18.05;12.82;;;;;;;;;;5128226;27;20473;-66
2021/07/07 14:46:23;;;;;;;10.50;8.20;;;;;;;;;;5130215;27;20058;-66
2021/07/07 14:48:50;;;;;;;12.48;7.97;;;;;;;;;;5131772;27;20020;-69
2021/07/07 14:51:16;;;;;;;15.50;11.50;;;;;;;;;;5130918;27;20351;-69
2021/07/07 14:53:42;;;;;;;9.55;7.50;;;;;;;;;;5131048;27;20033;-72
2021/07/07 14:56:08;;;;;;;10.90;6.97;;;;;;;;;;5130095;27;20031;-67
2021/07/07 14:58:34;;;;;;;13.82;9.35;;;;;;;;;;5130939;27;20060;-73
2021/07/07 15:01:00;;;;;;;9.30;6.95;;;;;;;;;;5111704;27;20379;-64
2021/07/07 15:03:26;;;;;;;10.35;6.88;;;;;;;;;;5130832;27;20110;-66
2021/07/07 15:05:53;;;;;;;12.68;9.00;;;;;;;;;;5127835;27;20042;-72
2021/07/07 15:08:19;;;;;;;10.75;7.93;;;;;;;;;;5130570;27;20019;-65
2021/07/07 15:10:45;;;;;;;10.82;7.55;;;;;;;;;;5110284;27;20076;-71
2021/07/07 15:13:11;;;;;;;16.10;9.93;;;;;;;;;;5130881;27;20023;-68
2021/07/07 15:15:37;;;;;;;10.27;6.85;;;;;;;;;;5131092;27;20076;-69
2021/07/07 15:18:08;;;;;;;12.27;8.95;;;;;;;;;;5132124;27;20047;-71
2021/07/07 15:20:35;;;;;;;9.57;6.85;;;;;;;;;;5132021;27;20710;-71
2021/07/07 15:23:01;;;;;;;9.40;7.25;;;;;;;;;;5131850;27;20023;-66
2021/07/07 15:25:27;;;;;;;10.95;7.60;;;;;;;;;;5131795;27;20493;-72
2021/07/07 15:27:55;;;;;;;12.02;7.10;;;;;;;;;;5131802;27;20050;-68
2021/07/07 15:30:21;;;;;;;15.18;7.78;;;;;;;;;;5131355;27;20102;-66
2021/07/07 15:32:47;;;;;;;9.90;7.05;;;;;;;;;;5131508;27;20024;-71
2021/07/07 15:35:14;;;;;;;8.98;6.35;;;;;;;;;;5131476;28;20086;-70
2021/07/07 15:37:40;;;;;;;8.82;6.35;;;;;;;;;;5131513;28;20497;-70
2021/07/07 15:40:06;;;;;;;8.43;6.90;;;;;;;;;;5131870;28;20027;-70
2021/07/07 15:42:32;;;;;;;9.43;7.15;;;;;;;;;;5131513;28;20034;-68
2021/07/07 15:44:58;;;;;;;8.32;7.10;;;;;;;;;;5132066;28;20051;-69
2021/07/07 15:47:24;;;;;;;10.13;7.20;;;;;;;;;;5131421;28;20666;-71
2021/07/07 15:49:51;;;;;;;8.80;6.78;;;;;;;;;;5131641;28;20485;-71
2021/07/07 15:52:17;;;;;;;9.27;6.45;;;;;;;;;;5131549;28;20034;-70
2021/07/07 15:54:43;;;;;;;8.02;7.03;;;;;;;;;;5131326;28;20026;-71
2021/07/07 15:57:09;;;;;;;7.75;6.53;;;;;;;;;;5131384;28;20035;-71
2021/07/07 15:59:35;;;;;;;9.68;7.45;;;;;;;;;;5131274;28;20045;-74
2021/07/07 16:02:01;;;;;;;10.38;6.53;;;;;;;;;;5131071;28;20514;-70
2021/07/07 16:04:27;;;;;;;8.93;6.68;;;;;;;;;;5131257;28;20432;-70
2021/07/07 16:06:53;;;;;;;9.80;6.40;;;;;;;;;;5131131;28;20406;-70
2021/07/07 16:09:21;;;;;;;10.88;6.75;;;;;;;;;;5131262;28;20447;-68
2021/07/07 16:11:47;;;;;;;10.40;7.38;;;;;;;;;;5130907;28;20024;-71
2021/07/07 16:14:14;;;;;;;7.57;6.35;;;;;;;;;;5130867;28;20500;-71
2021/07/07 16:16:40;;;;;;;9.65;6.68;;;;;;;;;;5131318;28;20084;-66
2021/07/07 16:19:06;;;;;;;8.55;6.80;;;;;;;;;;5131260;28;20024;-72
2021/07/07 16:21:32;;;;;;;13.57;7.35;;;;;;;;;;5128395;27;20051;-72
2021/07/07 16:23:59;;;;;;;8.23;6.35;;;;;;;;;;5134960;27;20031;-71
2021/07/07 16:26:25;;;;;;;9.75;7.15;;;;;;;;;;5134689;27;20033;-66
2021/07/07 16:28:52;;;;;;;10.43;6.63;;;;;;;;;;5134589;27;20085;-66
2021/07/07 16:31:18;;;;;;;8.27;6.28;;;;;;;;;;5134244;27;20058;-66
2021/07/07 16:33:44;;;;;;;8.40;6.53;;;;;;;;;;5134565;27;20896;-67
2021/07/07 16:36:11;;;;;;;8.30;6.53;;;;;;;;;;5134242;27;20129;-66
2021/07/07 16:38:37;;;;;;;10.60;6.53;;;;;;;;;;5135039;27;20098;-71
2021/07/07 16:41:03;;;;;;;10.10;6.82;;;;;;;;;;5134868;27;20027;-70
2021/07/07 16:43:29;;;;;;;6.97;5.95;;;;;;;;;;5134497;27;20023;-67
2021/07/07 16:45:55;;;;;;;7.30;5.97;;;;;;;;;;5134178;27;20031;-70
2021/07/07 16:48:21;;;;;;;8.77;5.95;;;;;;;;;;5134143;27;20015;-70
2021/07/07 16:50:49;;;;;;;8.82;6.32;;;;;;;;;;5134141;27;20034;-67
2021/07/07 16:53:15;;;;;;;9.77;6.03;;;;;;;;;;5134388;27;20023;-68
2021/07/07 16:55:41;;;;;;;9.57;6.07;;;;;;;;;;5134613;27;20072;-73
2021/07/07 16:58:07;;;;;;;8.70;5.78;;;;;;;;;;5134653;27;20019;-65
2021/07/07 17:00:33;;;;;;;12.20;6.05;;;;;;;;;;5134230;27;20424;-67
2021/07/07 17:03:00;;;;;;;8.57;5.47;;;;;;;;;;5134031;27;20462;-66
2021/07/07 17:05:26;;;;;;;8.85;5.88;;;;;;;;;;5133889;27;20061;-66
2021/07/07 17:07:53;;;;;;;7.82;5.70;;;;;;;;;;5134213;27;20142;-66
2021/07/07 17:10:19;;;;;;;10.60;6.03;;;;;;;;;;5115772;27;20038;-66
2021/07/07 17:12:45;;;;;;;10.20;5.85;;;;;;;;;;5134323;27;20031;-68
2021/07/07 17:15:12;;;;;;;9.57;5.82;;;;;;;;;;5132332;27;20110;-67
2021/07/07 17:17:38;;;;;;;7.20;5.50;;;;;;;;;;5133496;27;20420;-65
2021/07/07 17:20:04;;;;;;;7.60;5.38;;;;;;;;;;5133547;27;20042;-65
2021/07/07 17:22:30;;;;;;;6.07;5.47;;;;;;;;;;5133768;27;20050;-66
2021/07/07 17:24:57;;;;;;;8.35;5.60;;;;;;;;;;5133846;27;20050;-65
2021/07/07 17:27:23;;;;;;;8.02;5.60;;;;;;;;;;5133070;27;20027;-66
2021/07/07 17:29:49;;;;;;;12.05;6.43;;;;;;;;;;5114317;27;20031;-66
2021/07/07 17:32:15;;;;;;;9.73;5.07;;;;;;;;;;5133523;27;20034;-66
2021/07/07 17:34:41;;;;;;;18.13;6.35;;;;;;;;;;5132997;27;20019;-65
2021/07/07 17:37:07;;;;;;;16.40;5.85;;;;;;;;;;5133100;27;20053;-66
2021/07/07 17:39:33;;;;;;;10.60;5.35;;;;;;;;;;5133633;27;20503;-67
2021/07/07 17:41:59;;;;;;;10.23;5.82;;;;;;;;;;5133050;27;20035;-65
2021/07/07 17:44:25;;;;;;;10.15;5.93;;;;;;;;;;5133823;27;20027;-63
2021/07/07 17:46:51;;;;;;;13.30;5.47;;;;;;;;;;5132736;27;20103;-64
2021/07/07 17:49:17;;;;;;;10.30;5.70;;;;;;;;;;5133126;27;20027;-64
2021/07/07 17:51:44;;;;;;;8.50;5.57;;;;;;;;;;5133027;27;20386;-65
2021/07/07 17:54:10;;;;;;;7.88;5.40;;;;;;;;;;5133219;27;20153;-68
2021/07/07 17:56:36;;;;;;;8.68;5.32;;;;;;;;;;5114258;27;20092;-67
2021/07/07 17:59:02;;;;;;;9.25;5.63;;;;;;;;;;5132908;27;20023;-66
2021/07/07 18:01:29;;;;;;;6.63;5.40;;;;;;;;;;5132774;27;20031;-66
2021/07/07 18:03:55;;;;;;;17.95;6.10;;;;;;;;;;5133109;27;20037;-66
2021/07/07 18:06:21;;;;;;;11.07;6.50;;;;;;;;;;5133102;27;20031;-66
2021/07/07 18:08:47;;;;;;;9.30;5.40;;;;;;;;;;5132681;27;20019;-66
2021/07/07 18:11:14;;;;;;;8.68;5.30;;;;;;;;;;5126658;27;20118;-67
2021/07/07 18:13:40;;;;;;;7.00;5.70;;;;;;;;;;5094078;28;20038;-67
2021/07/07 18:16:06;;;;;;;8.50;6.00;;;;;;;;;;5111730;28;20081;-67
2021/07/07 18:18:33;;;;;;;8.50;5.90;;;;;;;;;;5112174;28;20020;-66
2021/07/07 18:20:59;;;;;;;9.73;5.60;;;;;;;;;;5115907;27;20030;-66
2021/07/07 18:23:25;;;;;;;8.20;5.78;;;;;;;;;;5132691;27;20054;-67
2021/07/07 18:25:51;;;;;;;9.68;6.25;;;;;;;;;;5132360;27;20061;-67
2021/07/07 18:28:18;;;;;;;9.75;6.20;;;;;;;;;;5126379;27;20035;-68
2021/07/07 18:30:45;;;;;;;10.45;6.55;;;;;;;;;;5102044;28;20024;-65
2021/07/07 18:33:12;;;;;;;10.23;6.45;;;;;;;;;;5108000;28;20035;-65
2021/07/07 18:35:38;;;;;;;12.90;6.85;;;;;;;;;;5113332;28;20055;-64
2021/07/07 18:38:04;;;;;;;13.70;6.75;;;;;;;;;;5111602;28;20118;-66
2021/07/07 18:40:30;;;;;;;11.27;6.57;;;;;;;;;;5111742;28;20028;-65
2021/07/07 18:42:56;;;;;;;11.40;6.97;;;;;;;;;;5112997;28;20077;-65
2021/07/07 18:45:23;;;;;;;13.63;7.80;;;;;;;;;;5111323;28;20160;-65
2021/07/07 18:47:49;;;;;;;12.18;8.35;;;;;;;;;;5111264;28;20129;-66
2021/07/07 18:50:15;;;;;;;19.85;10.52;;;;;;;;;;5111797;28;20032;-66
2021/07/07 18:52:42;;;;;;;19.20;10.75;;;;;;;;;;5131430;27;20034;-65
2021/07/07 18:55:08;;;;;;;19.27;11.02;;;;;;;;;;5129639;27;20030;-65
2021/07/07 18:57:40;;;;;;;18.27;11.57;;;;;;;;;;5130668;27;20397;-68
2021/07/07 19:00:08;;;;;;;21.48;11.52;;;;;;;;;;5130931;27;20019;-64
2021/07/07 19:02:34;;;;;;;19.73;10.52;;;;;;;;;;5130734;27;20034;-68
2021/07/07 19:05:00;;;;;;;21.95;11.05;;;;;;;;;;5130917;27;20336;-67
2021/07/07 19:07:27;;;;;;;20.80;11.70;;;;;;;;;;5130796;27;20044;-65
2021/07/07 19:09:55;;;;;;;27.10;12.05;;;;;;;;;;5131000;27;20659;-67
2021/07/07 19:12:21;;;;;;;19.83;12.32;;;;;;;;;;5131270;27;20106;-64
2021/07/07 19:14:52;;;;;;;20.33;11.90;;;;;;;;;;5131204;27;20023;-67
2021/07/07 19:17:18;;;;;;;22.80;12.32;;;;;;;;;;5130352;27;20027;-66
2021/07/07 19:22:56;;;;;;;24.20;12.40;;;;;;;;;;5128736;27;20034;-65
2021/07/07 19:28:25;;;;;;;24.85;12.90;;;;;;;;;;5129739;27;20042;-63
2021/07/07 19:30:51;;;;;;;23.17;12.93;;;;;;;;;;5112634;27;20027;-66
2021/07/07 19:33:17;;;;;;;21.92;12.98;;;;;;;;;;5131275;27;20027;-67
2021/07/07 19:35:43;;;;;;;21.27;13.15;;;;;;;;;;5131236;28;20059;-66
2021/07/07 19:38:10;;;;;;;22.85;13.10;;;;;;;;;;5131098;28;20114;-66
2021/07/07 19:40:36;;;;;;;22.63;12.60;;;;;;;;;;5131362;28;20023;-68
2021/07/07 19:43:03;;;;;;;18.35;12.07;;;;;;;;;;5127189;28;20023;-64
2021/07/07 19:45:29;;;;;;;17.73;11.02;;;;;;;;;;5130807;28;20046;-65
2021/07/07 19:47:55;;;;;;;19.63;12.32;;;;;;;;;;5131326;28;20544;-64
2021/07/07 19:50:23;;;;;;;17.75;11.23;;;;;;;;;;5130947;28;20039;-65
2021/07/07 19:52:49;;;;;;;18.98;11.80;;;;;;;;;;5131312;28;20030;-64
2021/07/07 19:55:16;;;;;;;15.60;11.18;;;;;;;;;;5130619;28;20470;-64
2021/07/07 19:57:42;;;;;;;43.38;13.25;;;;;;;;;;5133020;27;20035;-65
2021/07/07 20:00:13;;;;;;;15.35;7.85;;;;;;;;;;5135008;27;20019;-68
2021/07/07 20:02:40;;;;;;;17.17;8.05;;;;;;;;;;5135108;27;20023;-65
2021/07/07 20:05:06;;;;;;;13.48;7.90;;;;;;;;;;5135051;27;20038;-67
2021/07/07 20:07:32;;;;;;;13.65;8.63;;;;;;;;;;5135362;27;20101;-65
2021/07/07 20:09:58;;;;;;;13.73;8.35;;;;;;;;;;5135321;27;20024;-68
2021/07/07 20:12:25;;;;;;;10.60;8.13;;;;;;;;;;5116909;27;20027;-68
2021/07/07 20:14:51;;;;;;;13.90;6.90;;;;;;;;;;5135280;27;20019;-68
2021/07/07 20:17:17;;;;;;;16.10;7.43;;;;;;;;;;5134985;27;20065;-64
2021/07/07 20:19:44;;;;;;;16.02;6.88;;;;;;;;;;5135393;27;20016;-65
2021/07/07 20:22:10;;;;;;;13.30;7.50;;;;;;;;;;5135267;27;20114;-67
2021/07/07 20:24:36;;;;;;;10.85;6.20;;;;;;;;;;5135052;27;20466;-67
2021/07/07 20:27:03;;;;;;;9.70;6.90;;;;;;;;;;5135054;27;20524;-66
2021/07/07 20:29:29;;;;;;;11.68;6.95;;;;;;;;;;5134973;27;20112;-66
2021/07/07 20:31:55;;;;;;;12.18;7.10;;;;;;;;;;5134619;27;20035;-67
2021/07/07 20:34:21;;;;;;;10.65;6.88;;;;;;;;;;5134821;27;20030;-65
2021/07/07 20:36:47;;;;;;;25.17;13.65;;;;;;;;;;5134837;27;20510;-66
2021/07/07 20:39:14;;;;;;;15.57;8.68;;;;;;;;;;5131055;27;20386;-63
2021/07/07 20:41:40;;;;;;;17.80;8.02;;;;;;;;;;5134360;27;20023;-63
2021/07/07 20:44:06;;;;;;;12.35;7.20;;;;;;;;;;5134325;27;20048;-62
2021/07/07 20:46:33;;;;;;;12.52;6.50;;;;;;;;;;5134719;27;20016;-63
2021/07/07 20:48:59;;;;;;;12.93;7.03;;;;;;;;;;5115774;27;20027;-64
2021/07/07 20:51:25;;;;;;;10.15;6.72;;;;;;;;;;5134213;27;20062;-62
2021/07/07 20:53:51;;;;;;;12.63;6.45;;;;;;;;;;5130308;27;20023;-66
2021/07/07 20:56:17;;;;;;;12.30;6.60;;;;;;;;;;5131815;27;20521;-62
2021/07/07 20:58:43;;;;;;;10.05;6.95;;;;;;;;;;5133130;27;20442;-63
2021/07/07 21:01:09;;;;;;;14.43;6.45;;;;;;;;;;5132339;27;20431;-63
2021/07/07 21:03:35;;;;;;;18.40;8.30;;;;;;;;;;5132589;27;20034;-62
2021/07/07 21:06:02;;;;;;;9.65;6.03;;;;;;;;;;5132237;27;20141;-62
2021/07/07 21:08:28;;;;;;;14.27;7.70;;;;;;;;;;5131595;27;20034;-63
2021/07/07 21:10:54;;;;;;;9.43;5.78;;;;;;;;;;5133551;27;20146;-66
2021/07/07 21:13:20;;;;;;;11.63;6.57;;;;;;;;;;5133833;27;20027;-63
2021/07/07 21:15:46;;;;;;;8.68;5.45;;;;;;;;;;5133041;27;20111;-65
2021/07/07 21:18:12;;;;;;;7.88;5.18;;;;;;;;;;5133263;27;20046;-66
2021/07/07 21:20:38;;;;;;;9.25;5.15;;;;;;;;;;5133890;27;20023;-64
2021/07/07 21:23:04;;;;;;;12.02;5.80;;;;;;;;;;5129160;27;20458;-63
2021/07/07 21:25:30;;;;;;;9.45;5.07;;;;;;;;;;5133867;27;20453;-63
2021/07/07 21:27:56;;;;;;;10.35;5.50;;;;;;;;;;5133330;27;20130;-66
2021/07/07 21:30:24;;;;;;;7.78;5.30;;;;;;;;;;5133709;27;20027;-65
2021/07/07 21:32:50;;;;;;;11.40;5.53;;;;;;;;;;5133287;27;20094;-66
2021/07/07 21:35:17;;;;;;;8.52;5.15;;;;;;;;;;5133609;27;20050;-65
2021/07/07 21:37:44;;;;;;;8.90;5.43;;;;;;;;;;5133676;27;20038;-65
2021/07/07 21:40:11;;;;;;;9.35;5.70;;;;;;;;;;5130314;27;20414;-62
2021/07/07 21:42:37;;;;;;;8.25;5.32;;;;;;;;;;5133618;27;20023;-62
2021/07/07 21:45:04;;;;;;;10.48;5.90;;;;;;;;;;5129030;27;20016;-65
2021/07/07 21:47:30;;;;;;;12.25;6.90;;;;;;;;;;5133254;27;20062;-66
2021/07/07 21:49:56;;;;;;;11.50;6.15;;;;;;;;;;5133156;27;20470;-66
2021/07/07 21:52:22;;;;;;;11.32;6.10;;;;;;;;;;5133006;27;20466;-65
2021/07/07 21:54:48;;;;;;;11.82;5.97;;;;;;;;;;5133206;27;20034;-66
2021/07/07 21:57:16;;;;;;;9.10;5.80;;;;;;;;;;5133129;27;20034;-66
2021/07/07 21:59:42;;;;;;;9.82;5.72;;;;;;;;;;5131402;27;20012;-67
2021/07/07 22:02:09;;;;;;;8.07;5.75;;;;;;;;;;5132067;27;20546;-64
2021/07/07 22:04:35;;;;;;;9.00;5.75;;;;;;;;;;5131559;27;20076;-65
2021/07/07 22:07:01;;;;;;;10.35;5.97;;;;;;;;;;5107825;27;20016;-65
2021/07/07 22:09:27;;;;;;;7.47;5.57;;;;;;;;;;5131759;27;20030;-64
2021/07/07 22:11:53;;;;;;;13.43;5.63;;;;;;;;;;5131329;27;20027;-64
2021/07/07 22:14:19;;;;;;;8.23;5.03;;;;;;;;;;5132270;27;20030;-66
2021/07/07 22:16:45;;;;;;;12.70;5.70;;;;;;;;;;5130797;27;20134;-63
2021/07/07 22:19:12;;;;;;;9.82;5.57;;;;;;;;;;5131043;27;20016;-66
2021/07/07 22:21:39;;;;;;;8.50;5.20;;;;;;;;;;5130503;27;20023;-66
2021/07/07 22:24:05;;;;;;;7.07;5.10;;;;;;;;;;5131182;27;20029;-64
2021/07/07 22:26:31;;;;;;;9.35;5.80;;;;;;;;;;5132449;27;20115;-64
